Time;durP1;ratioP1;P1;durP2;ratioP2;P2;SDS_P1;SDS_P2;PMS_P1;PMS_P2;Temp;Humidity;BMP_temperature;BMP_pressure;BME280_temperature;BME280_humidity;BME280_pressure;Samples;Min_cycle;Max_cycle;Signal;HPM_P1;HPM_P2
2023/10/04 00:00:16;;;;;;;88.35;84.38;;;;;;;18.31;56.72;102402.16;4964934;28;20043;-66
2023/10/04 00:02:48;;;;;;;87.88;83.88;;;;;;;18.28;56.47;102406.22;4966655;28;20131;-65
2023/10/04 00:05:15;;;;;;;86.43;82.53;;;;;;;18.28;56.81;102408.16;4968999;28;20043;-65
2023/10/04 00:07:45;;;;;;;86.78;82.25;;;;;;;18.27;56.53;102409.22;4963809;28;20115;-65
2023/10/04 00:10:11;;;;;;;87.70;83.80;;;;;;;18.25;56.69;102409.47;4968804;28;20046;-66
2023/10/04 00:12:37;;;;;;;86.93;82.93;;;;;;;18.25;56.55;102405.91;4961694;28;20118;-65
2023/10/04 00:15:09;;;;;;;86.65;82.65;;;;;;;18.24;56.36;102407.81;4963904;28;20046;-65
2023/10/04 00:17:34;;;;;;;88.68;84.43;;;;;;;18.23;56.63;102413.56;4963784;28;20422;-65
2023/10/04 00:20:00;;;;;;;86.95;83.15;;;;;;;18.21;56.48;102411.06;4965692;28;20057;-65
2023/10/04 00:22:25;;;;;;;88.22;84.18;;;;;;;18.21;56.44;102410.25;4963210;28;20090;-65
2023/10/04 00:24:51;;;;;;;91.18;86.97;;;;;;;18.20;56.78;102414.88;4966144;28;20046;-65
2023/10/04 00:27:18;;;;;;;83.75;79.65;;;;;;;18.19;56.85;102415.13;4969591;28;20031;-65
2023/10/04 00:29:44;;;;;;;86.43;82.22;;;;;;;18.19;56.44;102415.13;4968860;28;20035;-65
2023/10/04 00:32:10;;;;;;;85.07;81.20;;;;;;;18.17;56.67;102413.47;4965820;28;20054;-65
2023/10/04 00:34:38;;;;;;;90.30;85.90;;;;;;;18.17;56.97;102413.47;4966518;28;20460;-65
2023/10/04 00:37:07;;;;;;;90.18;86.03;;;;;;;18.16;56.49;102420.00;4959443;28;20041;-65
2023/10/04 00:39:34;;;;;;;;;;;;;;;18.16;56.52;102416.47;4966668;28;20034;-65
2023/10/04 00:41:59;;;;;;;85.50;81.20;;;;;;;18.14;56.59;102418.63;4968754;28;19914;-66
2023/10/04 00:44:26;;;;;;;86.03;81.40;;;;;;;18.12;56.76;102415.31;4968488;28;20027;-66
2023/10/04 00:46:52;;;;;;;86.80;82.88;;;;;;;18.11;56.86;102421.84;4968108;28;20486;-65
2023/10/04 00:49:18;;;;;;;86.80;82.45;;;;;;;18.10;56.61;102423.78;4963506;28;20030;-65
2023/10/04 00:51:43;;;;;;;85.10;81.20;;;;;;;18.10;56.78;102433.91;4966613;28;20122;-65
2023/10/04 00:54:10;;;;;;;87.80;83.90;;;;;;;18.10;56.38;102433.91;4962381;28;20093;-65
2023/10/04 00:56:36;;;;;;;86.97;82.68;;;;;;;18.09;56.61;102438.53;4969393;28;20728;-66
2023/10/04 00:59:05;;;;;;;87.35;83.13;;;;;;;18.09;56.83;102438.53;4969771;28;20499;-65
2023/10/04 01:01:33;;;;;;;;;;;;;;;18.08;56.52;102441.50;4967569;28;20471;-65
2023/10/04 01:04:02;;;;;;;82.65;78.72;;;;;;;18.05;56.77;102436.56;4963709;28;20390;-66
2023/10/04 01:06:30;;;;;;;86.43;82.53;;;;;;;18.03;56.87;102435.97;4966070;28;20178;-65
2023/10/04 01:08:56;;;;;;;84.80;80.60;;;;;;;18.02;56.99;102437.88;4960086;28;20062;-65
2023/10/04 01:11:22;;;;;;;86.63;82.30;;;;;;;18.02;56.92;102439.81;4967648;28;20515;-65
2023/10/04 01:13:47;;;;;;;85.60;81.65;;;;;;;18.02;57.14;102443.34;4966643;28;20030;-65
2023/10/04 01:16:15;;;;;;;85.00;81.10;;;;;;;18.01;56.90;102443.59;4962508;28;20082;-66
2023/10/04 01:18:42;;;;;;;84.82;80.50;;;;;;;18.01;57.10;102438.13;4964246;28;20078;-65
2023/10/04 01:21:09;;;;;;;83.97;79.78;;;;;;;18.00;56.85;102445.50;4963138;28;20039;-65
2023/10/04 01:23:34;;;;;;;86.50;82.35;;;;;;;17.99;57.07;102449.31;4968129;28;20158;-66
2023/10/04 01:26:00;;;;;;;83.82;80.00;;;;;;;17.99;56.84;102445.75;4962078;28;20133;-65
2023/10/04 01:28:30;;;;;;;85.05;80.95;;;;;;;17.97;57.12;102439.69;4961662;28;20031;-65
2023/10/04 01:31:02;;;;;;;86.07;81.50;;;;;;;17.96;56.63;102444.34;4963592;28;20043;-65
2023/10/04 01:33:28;;;;;;;85.53;81.72;;;;;;;17.95;56.66;102450.91;4958241;28;20042;-67
2023/10/04 01:35:54;;;;;;;81.22;77.53;;;;;;;17.94;57.04;102452.81;4965271;28;20039;-66
2023/10/04 01:38:31;;;;;;;82.78;78.65;;;;;;;17.93;57.18;102444.84;4964133;28;20030;-65
2023/10/04 01:40:58;;;;;;;83.20;78.87;;;;;;;17.93;57.16;102453.06;4968893;28;20043;-65
2023/10/04 01:43:24;;;;;;;82.82;78.82;;;;;;;17.92;56.65;102449.50;4961052;28;20043;-66
2023/10/04 01:45:55;;;;;;;83.07;79.07;;;;;;;17.92;57.02;102456.88;4968123;28;20051;-66
2023/10/04 01:48:22;;;;;;;80.13;76.38;;;;;;;17.92;57.03;102454.16;4967947;28;20038;-66
2023/10/04 01:50:48;;;;;;;84.30;80.30;;;;;;;17.90;56.69;102451.66;4966869;28;20069;-65
2023/10/04 01:53:14;;;;;;;84.97;80.57;;;;;;;17.89;57.05;102438.22;4961827;28;20043;-65
2023/10/04 01:55:40;;;;;;;86.28;81.80;;;;;;;17.88;56.67;102440.13;4966210;28;20041;-66
2023/10/04 01:58:06;;;;;;;83.13;79.03;;;;;;;17.88;56.98;102442.03;4970338;28;20386;-65
2023/10/04 02:00:33;;;;;;;83.88;79.97;;;;;;;17.86;57.11;102438.72;4962247;28;20031;-68
2023/10/04 02:02:59;;;;;;;84.22;80.20;;;;;;;17.85;56.75;102439.81;4969005;28;20043;-66
2023/10/04 02:05:32;;;;;;;85.55;81.10;;;;;;;17.84;57.17;102441.72;4965140;28;20034;-66
2023/10/04 02:07:58;;;;;;;85.13;80.93;;;;;;;17.84;56.79;102446.34;4967151;28;20043;-65
2023/10/04 02:10:24;;;;;;;82.60;78.68;;;;;;;17.83;57.22;102445.53;4964948;28;20484;-65
2023/10/04 02:12:50;;;;;;;87.00;83.00;;;;;;;17.83;57.09;102442.78;4970866;28;20183;-65
2023/10/04 02:15:17;;;;;;;88.07;83.97;;;;;;;17.82;56.79;102445.78;4965314;28;20035;-65
2023/10/04 02:17:46;;;;;;;83.82;79.80;;;;;;;17.82;57.04;102440.31;4960732;28;20045;-65
2023/10/04 02:20:20;;;;;;;82.00;78.28;;;;;;;17.82;57.11;102445.78;4966051;28;20075;-65
2023/10/04 02:22:47;;;;;;;85.32;81.43;;;;;;;17.80;57.19;102435.09;4969014;28;20381;-66
2023/10/04 02:25:13;;;;;;;83.70;79.90;;;;;;;17.79;56.63;102438.88;4969635;28;20042;-65
2023/10/04 02:27:41;;;;;;;82.25;78.50;;;;;;;17.79;56.83;102435.28;4968196;28;20045;-66
2023/10/04 02:30:14;;;;;;;82.40;78.10;;;;;;;17.78;56.55;102434.47;4968243;28;20059;-65
2023/10/04 02:32:41;;;;;;;85.53;81.55;;;;;;;17.78;57.19;102444.59;4965107;28;20036;-66
2023/10/04 02:35:07;;;;;;;85.35;81.50;;;;;;;17.77;57.27;102451.16;4970810;28;20026;-65
2023/10/04 02:37:34;;;;;;;84.13;80.03;;;;;;;17.76;57.05;102450.28;4964156;28;20388;-66
2023/10/04 02:40:01;;;;;;;81.22;77.50;;;;;;;17.75;56.86;102456.84;4963714;28;20038;-65
2023/10/04 02:42:27;;;;;;;82.47;78.50;;;;;;;17.76;57.25;102460.41;4969137;28;20034;-65
2023/10/04 02:44:52;;;;;;;86.45;82.45;;;;;;;17.76;56.90;102460.41;4968135;28;20035;-65
2023/10/04 02:47:18;;;;;;;83.10;79.30;;;;;;;17.73;57.13;102451.63;4970114;28;20048;-65
2023/10/04 02:49:43;;;;;;;86.22;82.13;;;;;;;17.73;56.68;102457.09;4963224;28;20089;-65
2023/10/04 02:52:13;;;;;;;82.55;78.55;;;;;;;17.73;56.73;102462.56;4964675;28;20399;-67
2023/10/04 02:54:39;;;;;;;80.38;76.45;;;;;;;17.72;57.04;102462.81;4964881;28;20090;-67
2023/10/04 02:57:05;;;;;;;84.32;80.13;;;;;;;17.71;57.17;102462.00;4969752;28;20043;-66
2023/10/04 02:59:34;;;;;;;82.28;77.63;;;;;;;17.70;56.74;102452.13;4959632;28;20069;-66
2023/10/04 03:02:01;;;;;;;83.15;79.25;;;;;;;17.69;57.22;102461.41;4966203;28;20038;-65
2023/10/04 03:04:27;;;;;;;87.70;83.32;;;;;;;17.69;56.71;102466.88;4967696;28;20105;-65
2023/10/04 03:06:53;;;;;;;87.00;82.90;;;;;;;17.69;56.98;102474.25;4966575;28;20030;-65
2023/10/04 03:09:19;;;;;;;82.18;78.15;;;;;;;17.67;56.88;102479.97;4966784;28;20046;-66
2023/10/04 03:11:44;;;;;;;85.53;81.32;;;;;;;17.67;57.33;102471.75;4970936;28;20038;-65
2023/10/04 03:14:12;;;;;;;81.38;77.72;;;;;;;17.67;56.84;102479.13;4971059;28;20089;-65
2023/10/04 03:16:40;;;;;;;82.43;78.72;;;;;;;17.66;57.09;102482.94;4971629;28;20406;-65
2023/10/04 03:19:06;;;;;;;84.53;80.25;;;;;;;17.65;56.78;102479.38;4967370;28;20038;-65
2023/10/04 03:21:31;;;;;;;85.72;80.82;;;;;;;17.64;57.37;102488.66;4967726;28;20042;-65
2023/10/04 03:24:06;;;;;;;85.95;81.85;;;;;;;17.63;57.32;102481.50;4964601;28;20043;-66
2023/10/04 03:26:31;;;;;;;82.88;78.97;;;;;;;17.64;56.97;102485.91;4961239;28;20539;-65
2023/10/04 03:28:57;;;;;;;82.97;79.25;;;;;;;17.63;57.16;102489.72;4970563;28;20130;-65
2023/10/04 03:31:23;;;;;;;82.07;78.15;;;;;;;17.61;57.19;102480.09;4970640;28;20117;-66
2023/10/04 03:33:49;;;;;;;84.95;80.75;;;;;;;17.62;57.15;102473.59;4969404;28;20464;-66
2023/10/04 03:36:17;;;;;;;83.03;79.00;;;;;;;17.60;57.30;102473.81;4967229;28;20094;-67
2023/10/04 03:38:43;;;;;;;82.57;78.53;;;;;;;17.60;57.13;102475.72;4963110;28;20242;-68
2023/10/04 03:41:08;;;;;;;83.78;79.97;;;;;;;17.60;57.16;102481.19;4967730;28;20297;-65
2023/10/04 03:43:37;;;;;;;81.78;77.43;;;;;;;17.58;56.91;102481.44;4966692;28;20038;-65
2023/10/04 03:46:17;;;;;;;82.55;78.47;;;;;;;17.58;57.11;102466.94;4964812;28;20291;-65
2023/10/04 03:48:43;;;;;;;79.18;75.53;;;;;;;17.57;56.86;102462.56;4962939;28;20039;-68
2023/10/04 03:51:09;;;;;;;80.68;76.82;;;;;;;17.57;56.85;102462.56;4964201;28;20054;-66
2023/10/04 03:53:35;;;;;;;78.97;75.22;;;;;;;17.54;57.15;102458.44;4965815;28;20430;-65
2023/10/04 03:56:00;;;;;;;82.15;78.25;;;;;;;17.55;57.30;102456.53;4969363;28;20043;-65
2023/10/04 03:58:26;;;;;;;80.57;76.93;;;;;;;17.53;57.30;102465.78;4971679;28;20458;-65
2023/10/04 04:00:51;;;;;;;82.03;78.13;;;;;;;17.53;57.24;102471.25;4966141;28;20042;-65
2023/10/04 04:03:18;;;;;;;83.68;79.88;;;;;;;17.52;57.29;102468.78;4971251;28;20193;-66
2023/10/04 04:05:44;;;;;;;79.88;76.30;;;;;;;17.52;57.22;102466.03;4969526;28;20061;-68
2023/10/04 04:08:13;;;;;;;80.47;76.47;;;;;;;17.50;57.30;102460.81;4965625;28;20475;-65
2023/10/04 04:10:42;;;;;;;80.20;76.55;;;;;;;17.50;57.05;102463.53;4961706;28;20055;-65
2023/10/04 04:13:09;;;;;;;82.38;78.47;;;;;;;17.49;57.33;102456.44;4965645;28;20051;-66
2023/10/04 04:15:35;;;;;;;80.32;76.40;;;;;;;17.48;56.77;102452.03;4967267;28;20035;-65
2023/10/04 04:18:23;;;;;;;81.22;76.55;;;;;;;17.48;57.18;102451.22;4966161;28;20112;-65
2023/10/04 04:20:53;;;;;;;83.25;79.25;;;;;;;17.47;56.72;102452.28;4964803;28;20043;-68
2023/10/04 04:23:19;;;;;;;79.95;76.25;;;;;;;17.45;57.16;102449.78;4963039;28;20134;-65
2023/10/04 04:25:46;;;;;;;80.05;76.35;;;;;;;17.44;57.31;102447.34;4962390;28;20047;-65
2023/10/04 04:28:12;;;;;;;83.20;79.30;;;;;;;17.43;56.80;102446.47;4968335;28;20051;-67
2023/10/04 04:30:38;;;;;;;78.60;74.97;;;;;;;17.43;57.33;102451.13;4965506;28;20154;-65
2023/10/04 04:33:07;;;;;;;82.63;78.72;;;;;;;17.42;57.21;102453.03;4968914;28;20571;-65
2023/10/04 04:40:39;;;;;;;80.72;77.13;;;;;;;17.40;57.24;102444.25;4965388;28;20061;-66
2023/10/04 04:45:51;;;;;;;80.32;76.22;;;;;;;17.38;56.75;102445.56;4965152;28;20078;-71
2023/10/04 04:48:24;;;;;;;81.55;77.63;;;;;;;17.37;56.99;102458.41;4969872;28;20126;-66
2023/10/04 04:50:52;;;;;;;79.90;76.22;;;;;;;17.36;57.29;102448.56;4967379;28;20118;-70
2023/10/04 04:53:18;;;;;;;82.72;78.65;;;;;;;17.35;57.09;102455.09;4960814;28;20462;-65
2023/10/04 04:55:45;;;;;;;81.25;77.45;;;;;;;17.35;57.05;102457.00;4966944;28;20535;-66
2023/10/04 04:58:14;;;;;;;79.10;75.50;;;;;;;17.34;57.25;102456.19;4965560;28;20054;-68
2023/10/04 05:00:42;;;;;;;81.10;77.20;;;;;;;17.33;56.67;102467.34;4960336;28;20035;-66
2023/10/04 05:03:09;;;;;;;81.15;77.13;;;;;;;17.32;57.17;102471.97;4969394;28;20039;-67
2023/10/04 05:05:34;;;;;;;79.93;76.22;;;;;;;17.31;57.16;102478.50;4966165;28;20185;-66
2023/10/04 05:08:00;;;;;;;84.05;79.80;;;;;;;17.30;56.92;102488.59;4962404;28;20122;-69
2023/10/04 05:10:29;;;;;;;81.65;77.78;;;;;;;17.30;57.02;102490.50;4963965;28;20087;-66
2023/10/04 05:12:55;;;;;;;80.88;76.85;;;;;;;17.28;56.84;102488.00;4963832;28;20469;-65
2023/10/04 05:15:32;;;;;;;82.65;78.85;;;;;;;17.28;57.12;102490.75;4964712;28;20034;-66
2023/10/04 05:18:00;;;;;;;81.68;77.80;;;;;;;17.26;57.08;102484.72;4963204;28;20130;-65
2023/10/04 05:20:27;;;;;;;80.47;76.47;;;;;;;17.26;56.82;102487.44;4964726;28;20042;-68
2023/10/04 05:22:53;;;;;;;82.45;78.63;;;;;;;17.26;57.18;102490.19;4962558;28;20388;-69
2023/10/04 05:25:20;;;;;;;83.80;79.63;;;;;;;17.23;57.13;102482.44;4958130;28;20040;-66
2023/10/04 05:27:49;;;;;;;79.55;75.75;;;;;;;17.22;56.76;102482.72;4964682;28;20047;-68
2023/10/04 05:30:16;;;;;;;78.68;74.97;;;;;;;17.21;56.98;102492.81;4963182;28;20770;-66
2023/10/04 05:32:43;;;;;;;78.65;74.38;;;;;;;17.21;56.84;102508.34;4966470;28;20428;-66
2023/10/04 05:35:14;;;;;;;77.75;74.00;;;;;;;17.20;56.78;102512.16;4962313;28;20043;-67
2023/10/04 05:37:44;;;;;;;78.25;74.68;;;;;;;17.19;57.13;102516.81;4959716;28;20047;-66
2023/10/04 05:40:16;;;;;;;82.80;78.90;;;;;;;17.17;57.21;102507.19;4966219;28;20070;-65
2023/10/04 05:42:46;;;;;;;78.20;74.40;;;;;;;17.17;56.74;102507.19;4963033;28;20053;-67
2023/10/04 05:45:12;;;;;;;81.25;77.15;;;;;;;17.16;57.17;102500.06;4966521;28;20039;-67
2023/10/04 05:47:41;;;;;;;79.63;76.07;;;;;;;17.14;56.99;102513.97;4967437;28;20047;-65
2023/10/04 05:50:13;;;;;;;79.60;75.80;;;;;;;17.14;57.13;102504.97;4966008;28;20049;-66
2023/10/04 05:52:39;;;;;;;80.60;76.90;;;;;;;17.12;57.20;102513.38;4962663;28;20038;-67
2023/10/04 05:55:08;;;;;;;78.00;74.38;;;;;;;17.12;56.77;102520.75;4962552;28;20129;-68
2023/10/04 05:57:34;;;;;;;75.90;72.10;;;;;;;17.10;56.74;102520.97;4968369;28;20039;-65
2023/10/04 05:59:59;;;;;;;80.40;76.57;;;;;;;17.10;57.21;102520.97;4960689;28;20035;-66
2023/10/04 06:02:25;;;;;;;78.05;74.47;;;;;;;17.09;56.92;102519.34;4960371;28;20063;-67
2023/10/04 06:04:50;;;;;;;77.85;74.13;;;;;;;17.07;56.81;102514.09;4968743;28;20045;-66
2023/10/04 06:07:16;;;;;;;80.40;76.15;;;;;;;17.07;56.74;102521.47;4961538;28;20093;-66
2023/10/04 06:09:45;;;;;;;79.85;76.05;;;;;;;17.06;56.96;102530.75;4968587;28;20054;-67
2023/10/04 06:12:11;;;;;;;79.35;75.03;;;;;;;17.04;57.17;102533.72;4962262;28;20126;-67
2023/10/04 06:14:37;;;;;;;79.55;75.75;;;;;;;17.04;56.69;102538.34;4968805;28;20777;-66
2023/10/04 06:17:06;;;;;;;80.45;76.15;;;;;;;17.03;57.27;102537.53;4964144;28;20129;-67
2023/10/04 06:19:31;;;;;;;80.32;76.32;;;;;;;17.01;56.65;102539.66;4963483;28;20093;-67
2023/10/04 06:21:57;;;;;;;77.03;73.43;;;;;;;17.02;57.17;102537.75;4961950;28;20035;-69
2023/10/04 06:24:22;;;;;;;76.68;73.07;;;;;;;17.01;56.99;102536.06;4959396;28;20027;-66
2023/10/04 06:26:48;;;;;;;77.60;73.78;;;;;;;17.00;57.03;102539.91;4963092;28;20387;-67
2023/10/04 06:29:14;;;;;;;76.60;73.00;;;;;;;16.99;57.16;102543.72;4965324;28;20036;-65
2023/10/04 06:31:40;;;;;;;76.50;72.80;;;;;;;16.98;56.75;102540.13;4956900;28;20511;-67
2023/10/04 06:34:06;;;;;;;75.35;71.90;;;;;;;16.98;56.90;102542.84;4960303;28;20039;-66
2023/10/04 06:36:31;;;;;;;74.65;70.85;;;;;;;16.97;56.87;102543.13;4967314;28;20667;-67
2023/10/04 06:38:56;;;;;;;74.45;70.75;;;;;;;16.96;56.84;102550.47;4972280;28;20054;-67
2023/10/04 06:41:25;;;;;;;75.47;71.82;;;;;;;16.96;57.02;102555.94;4966739;28;20097;-67
2023/10/04 06:43:51;;;;;;;74.90;71.07;;;;;;;16.94;56.93;102554.53;4967709;28;20065;-67
2023/10/04 06:46:17;;;;;;;75.07;71.47;;;;;;;16.93;56.74;102556.41;4965114;28;20035;-65
2023/10/04 06:48:43;;;;;;;76.15;72.63;;;;;;;16.92;57.08;102557.47;4978797;28;20050;-66
2023/10/04 06:51:08;;;;;;;74.65;70.75;;;;;;;16.91;57.11;102558.56;4965087;28;20409;-67
2023/10/04 06:53:33;;;;;;;74.03;70.43;;;;;;;16.90;56.68;102556.06;4955267;28;20057;-67
2023/10/04 06:55:59;;;;;;;76.88;72.72;;;;;;;16.89;56.82;102552.50;4967514;28;20039;-66
2023/10/04 06:58:25;;;;;;;74.72;70.22;;;;;;;16.88;56.58;102559.03;4971604;28;20477;-67
2023/10/04 07:00:50;;;;;;;73.75;70.47;;;;;;;16.86;56.68;102556.56;4966754;28;20167;-67
2023/10/04 07:03:16;;;;;;;73.75;70.20;;;;;;;16.86;56.90;102555.72;4960280;28;20031;-67
2023/10/04 07:05:42;;;;;;;75.55;71.57;;;;;;;16.84;56.91;102553.22;4965429;28;20039;-68
2023/10/04 07:08:12;;;;;;;76.97;73.25;;;;;;;16.84;57.15;102558.69;4965311;28;20064;-68
2023/10/04 07:10:38;;;;;;;74.20;70.70;;;;;;;16.84;57.22;102557.88;4964315;28;20094;-66
2023/10/04 07:13:06;;;;;;;77.95;74.22;;;;;;;16.83;56.85;102554.31;4964994;28;20126;-71
2023/10/04 07:15:35;;;;;;;76.05;72.28;;;;;;;16.83;57.10;102556.19;4969938;28;20505;-68
2023/10/04 07:18:06;;;;;;;74.43;71.07;;;;;;;16.81;57.07;102553.72;4966272;28;20046;-66
2023/10/04 07:20:32;;;;;;;73.95;69.97;;;;;;;16.82;56.69;102557.28;4968537;28;20106;-68
2023/10/04 07:23:03;;;;;;;75.28;71.35;;;;;;;16.81;56.66;102555.63;4963021;28;20479;-67
2023/10/04 07:25:34;;;;;;;78.40;74.15;;;;;;;16.79;57.15;102553.13;4960078;28;20107;-68
2023/10/04 07:28:01;;;;;;;76.45;72.75;;;;;;;16.81;56.68;102563.81;4961923;28;20030;-67
2023/10/04 07:30:27;;;;;;;73.53;69.93;;;;;;;16.80;56.78;102570.31;4964226;28;20043;-74
2023/10/04 07:32:52;;;;;;;74.70;71.20;;;;;;;16.80;56.75;102562.94;4970546;28;20042;-71
2023/10/04 07:35:24;;;;;;;75.68;71.80;;;;;;;16.79;57.20;102561.31;4973799;28;20037;-65
2023/10/04 07:37:50;;;;;;;77.35;73.15;;;;;;;16.80;56.70;102570.31;4967319;28;20062;-69
2023/10/04 07:40:16;;;;;;;75.47;71.93;;;;;;;16.78;57.14;102572.44;4972342;28;20034;-66
2023/10/04 07:42:45;;;;;;;75.13;71.28;;;;;;;16.78;56.84;102570.56;4965977;28;20407;-67
2023/10/04 07:45:12;;;;;;;76.68;72.88;;;;;;;16.78;56.78;102575.19;4969631;28;20216;-66
2023/10/04 07:47:41;;;;;;;76.18;72.10;;;;;;;16.76;57.01;102571.84;4968063;28;20053;-66
2023/10/04 07:50:09;;;;;;;;;;;;;;;16.76;56.94;102583.59;4955091;28;20112;-68
2023/10/04 07:52:38;;;;;;;71.40;67.80;;;;;;;16.75;56.93;102579.19;4955847;28;19914;-67
2023/10/04 07:55:17;;;;;;;71.63;67.53;;;;;;;16.74;56.71;102596.63;4954978;28;20027;-77
2023/10/04 07:57:47;;;;;;;71.70;68.35;;;;;;;16.73;56.96;102592.25;4957413;28;20050;-76
2023/10/04 08:00:15;;;;;;;80.90;75.00;;;;;;;16.72;57.21;102592.50;4967586;28;20169;-74
2023/10/04 08:02:49;;;;;;;;;;;;;;;16.71;57.17;102601.75;4955178;28;20380;-77
2023/10/04 08:05:25;;;;;;;68.10;64.70;;;;;;;16.69;57.25;102604.72;4954467;28;19945;-76
2023/10/04 08:07:52;;;;;;;71.05;67.55;;;;;;;16.67;56.99;102598.66;4962617;28;20019;-73
2023/10/04 08:10:23;;;;;;;74.35;69.70;;;;;;;16.66;57.22;102599.75;4970382;28;20479;-72
2023/10/04 08:12:51;;;;;;;71.93;66.85;;;;;;;16.64;57.46;102605.44;4962695;28;20122;-77
2023/10/04 08:15:19;;;;;;;71.68;68.05;;;;;;;16.64;57.16;102610.88;4966469;28;20039;-73
2023/10/04 08:17:48;;;;;;;72.97;69.47;;;;;;;16.64;57.60;102605.44;4971727;28;20436;-78
2023/10/04 08:20:14;;;;;;;73.63;68.95;;;;;;;16.61;57.36;102608.63;4971215;28;20415;-76
2023/10/04 08:22:40;;;;;;;71.90;66.80;;;;;;;16.62;57.76;102614.91;4957557;28;20035;-79
2023/10/04 08:25:08;;;;;;;71.00;67.40;;;;;;;16.62;58.01;102604.00;4965280;28;20046;-73
2023/10/04 08:27:34;;;;;;;72.32;68.32;;;;;;;16.63;57.80;102611.97;4962752;28;20036;-73
2023/10/04 08:30:03;;;;;;;70.22;66.72;;;;;;;16.65;57.96;102617.16;4971894;28;20034;-80
2023/10/04 08:32:30;;;;;;;74.03;69.75;;;;;;;16.67;57.80;102618.59;4963043;28;20114;-76
2023/10/04 08:34:57;;;;;;;71.38;67.25;;;;;;;16.70;58.00;102616.44;4957430;28;20039;-76
2023/10/04 08:37:23;;;;;;;73.97;70.07;;;;;;;16.71;58.04;102618.97;4955217;28;20051;-75
2023/10/04 08:39:48;;;;;;;73.90;70.05;;;;;;;16.74;58.08;102615.75;4954141;28;20047;-76
2023/10/04 08:42:14;;;;;;;72.15;68.35;;;;;;;16.73;57.85;102622.28;4970504;28;20047;-77
2023/10/04 08:44:39;;;;;;;75.18;71.28;;;;;;;16.75;58.06;102625.56;4968079;28;20043;-73
2023/10/04 08:47:05;;;;;;;72.15;68.55;;;;;;;16.73;58.78;102618.69;4969881;28;20038;-71
2023/10/04 08:49:43;;;;;;;73.85;70.03;;;;;;;16.73;58.97;102621.44;4962645;28;20030;-73
2023/10/04 08:52:23;;;;;;;69.88;66.18;;;;;;;16.75;58.95;102619.28;4962267;28;20033;-73
2023/10/04 08:54:56;;;;;;;72.32;68.07;;;;;;;16.78;58.56;102614.25;4953999;28;20027;-72
2023/10/04 08:57:22;;;;;;;71.30;67.97;;;;;;;16.80;58.83;102623.00;4964165;28;20398;-73
2023/10/04 08:59:50;;;;;;;73.03;69.63;;;;;;;16.83;58.57;102622.53;4953541;28;20031;-76
2023/10/04 09:02:18;;;;;;;75.13;70.57;;;;;;;16.85;58.83;102628.56;4962617;28;20542;-75
2023/10/04 09:04:46;;;;;;;74.68;70.97;;;;;;;16.89;58.66;102626.22;4955773;28;20027;-68
2023/10/04 09:07:11;;;;;;;73.55;69.43;;;;;;;16.91;58.69;102621.34;4958607;28;20093;-79
2023/10/04 09:09:40;;;;;;;75.40;71.50;;;;;;;16.93;58.28;102627.38;4955065;28;20081;-67
2023/10/04 09:12:09;;;;;;;72.60;69.10;;;;;;;16.95;58.40;102624.41;4968709;28;20038;-70
2023/10/04 09:14:40;;;;;;;71.68;67.63;;;;;;;16.95;58.67;102613.50;4963928;28;20038;-71
2023/10/04 09:17:07;;;;;;;71.18;67.10;;;;;;;16.96;58.73;102615.13;4964283;28;20046;-72
2023/10/04 09:19:33;;;;;;;77.90;73.95;;;;;;;16.99;58.57;102618.25;4962646;28;20452;-72
2023/10/04 09:22:06;;;;;;;73.45;69.50;;;;;;;17.02;58.77;102614.19;4960362;28;20035;-73
2023/10/04 09:24:31;;;;;;;78.30;74.25;;;;;;;17.01;58.36;102610.66;4961127;28;20031;-72
2023/10/04 09:26:57;;;;;;;73.70;70.13;;;;;;;17.03;58.81;102618.56;4954994;28;20082;-71
2023/10/04 09:29:30;;;;;;;76.80;72.85;;;;;;;17.03;58.39;102619.44;4952884;28;20043;-71
2023/10/04 09:31:56;;;;;;;75.15;71.07;;;;;;;17.06;58.58;102618.13;4966020;28;20459;-70
2023/10/04 09:34:25;;;;;;;77.15;73.40;;;;;;;17.06;58.22;102615.38;4966228;28;20038;-73
2023/10/04 09:36:52;;;;;;;;;;;;;;;17.05;58.43;102622.72;4965720;28;20081;-71
2023/10/04 09:39:24;;;;;;;79.50;74.68;;;;;;;17.06;58.71;102620.84;4952771;28;20393;-72
2023/10/04 09:42:03;;;;;;;73.47;70.00;;;;;;;17.07;58.46;102619.78;4965315;28;20066;-72
2023/10/04 09:44:30;;;;;;;74.88;71.35;;;;;;;17.08;58.64;102625.00;4971798;28;20433;-71
2023/10/04 09:47:00;;;;;;;77.78;73.45;;;;;;;17.09;58.62;102604.81;4968216;28;20825;-72
2023/10/04 09:49:33;;;;;;;78.80;74.75;;;;;;;17.12;58.83;102603.50;4977707;28;20418;-72
2023/10/04 09:52:12;;;;;;;75.93;72.20;;;;;;;17.13;58.57;102609.78;4963386;28;20118;-73
2023/10/04 09:54:37;;;;;;;78.55;74.40;;;;;;;17.14;58.47;102611.47;4966409;28;20043;-73
2023/10/04 09:57:06;;;;;;;78.53;74.05;;;;;;;17.16;58.57;102615.59;4968192;28;20471;-71
2023/10/04 09:59:34;;;;;;;80.18;75.85;;;;;;;17.18;58.61;102607.97;4971425;28;20037;-71
2023/10/04 10:02:00;;;;;;;81.15;76.82;;;;;;;17.21;58.79;102612.13;4966800;28;20039;-71
2023/10/04 10:04:33;;;;;;;78.00;74.10;;;;;;;17.23;58.31;102619.00;4963928;28;20432;-73
2023/10/04 10:07:09;;;;;;;77.15;73.10;;;;;;;17.26;58.40;102626.72;4961645;28;20097;-72
2023/10/04 10:09:42;;;;;;;75.43;71.82;;;;;;;17.28;58.79;102624.56;4973992;28;20129;-70
2023/10/04 10:12:08;;;;;;;77.30;73.47;;;;;;;17.30;58.53;102625.16;4971589;28;20039;-73
2023/10/04 10:14:34;;;;;;;80.95;77.15;;;;;;;17.32;58.64;102621.38;4973500;28;20061;-71
2023/10/04 10:17:00;;;;;;;78.82;75.00;;;;;;;17.36;58.21;102625.25;4969228;28;20042;-71
2023/10/04 10:19:28;;;;;;;79.85;76.03;;;;;;;17.37;58.61;102625.03;4971672;28;20046;-77
2023/10/04 10:22:11;;;;;;;81.75;77.22;;;;;;;17.40;58.42;102620.97;4967838;28;20035;-70
2023/10/04 10:24:45;;;;;;;79.22;75.13;;;;;;;17.43;58.43;102617.75;4969187;28;20047;-71
2023/10/04 10:27:13;;;;;;;79.07;75.07;;;;;;;17.46;58.65;102620.84;4976736;28;20084;-71
2023/10/04 10:29:40;;;;;;;83.45;79.55;;;;;;;17.49;58.28;102614.06;4973367;28;20045;-71
2023/10/04 10:32:35;;;;;;;79.15;75.25;;;;;;;17.48;58.73;102615.94;4968553;28;20442;-72
2023/10/04 10:35:07;;;;;;;76.93;72.72;;;;;;;17.49;58.43;102614.06;4964557;28;20477;-72
2023/10/04 10:37:38;;;;;;;80.13;75.65;;;;;;;17.50;58.36;102619.28;4967213;28;20063;-71
2023/10/04 10:40:13;;;;;;;80.70;76.32;;;;;;;17.52;58.78;102610.84;4966933;28;20128;-72
2023/10/04 10:43:07;;;;;;;82.00;78.00;;;;;;;17.55;58.82;102617.72;4984880;28;20141;-72
2023/10/04 10:45:33;;;;;;;84.35;79.32;;;;;;;17.57;58.46;102613.69;4967185;28;20468;-70
2023/10/04 10:48:00;;;;;;;84.75;80.60;;;;;;;17.59;58.84;102610.69;4974869;28;20046;-71
2023/10/04 10:50:37;;;;;;;79.93;76.13;;;;;;;17.61;58.48;102603.91;4971037;28;20513;-72
2023/10/04 10:53:05;;;;;;;83.90;79.25;;;;;;;17.64;58.63;102605.31;4970485;28;20043;-72
2023/10/04 10:55:32;;;;;;;84.43;79.57;;;;;;;17.67;58.22;102600.19;4969252;28;20088;-70
2023/10/04 10:57:58;;;;;;;83.13;78.80;;;;;;;17.71;58.47;102595.91;4986966;28;20027;-72
2023/10/04 11:00:25;;;;;;;82.65;77.63;;;;;;;17.76;58.38;102591.59;4973727;28;20042;-71
2023/10/04 11:02:54;;;;;;;80.33;75.97;;;;;;;17.80;58.02;102592.81;4966197;28;20043;-71
2023/10/04 11:05:21;;;;;;;81.50;76.05;;;;;;;17.82;58.22;102585.19;4976218;28;20753;-68
2023/10/04 11:07:52;;;;;;;84.28;79.70;;;;;;;17.84;57.99;102591.22;4973773;28;20047;-71
2023/10/04 11:10:20;;;;;;;85.22;80.60;;;;;;;17.87;58.28;102580.63;4986887;28;20055;-68
2023/10/04 11:12:55;;;;;;;84.82;80.53;;;;;;;17.89;57.85;102592.16;4965645;28;20545;-68
2023/10/04 11:15:26;;;;;;;82.70;78.57;;;;;;;17.91;58.51;102583.69;4969683;28;20395;-70
2023/10/04 11:17:52;;;;;;;84.05;79.82;;;;;;;17.93;58.08;102587.00;4967361;28;20390;-68
2023/10/04 11:20:18;;;;;;;84.00;79.95;;;;;;;17.95;57.93;102584.88;4975023;28;20042;-68
2023/10/04 11:22:45;;;;;;;88.20;83.90;;;;;;;17.98;58.06;102583.53;4965743;28;20034;-69